RYR39K EBBR-EIDW
Flight info
| Callsign | RYR39K |
|---|---|
| Flight time | N/A |
| Altitude | 38000 |
| Route | DENUT L610 KOPUL DCT SABER DCT SIVDA DCT RODOL UL28 LELDO M145 BAGSO BAGSO3R |
| Aircraft | B38M/M-SDE1FGHILORVWXY/HB1 |
Departure
| Time | 2026-04-30 15:05 |
|---|---|
| Airport | Brussels Airport (EBBR) |
Arrival
| Time | N/A |
|---|---|
| Airport | Dublin Airport (EIDW) |
| Time | Latitude | Longitude | Altitude | Speed | Heading |
|---|---|---|---|---|---|
| 2026-04-30 14:43 | 50.89957 | 4.48729 | 147 ft | 0 kts | 335° |
| 2026-04-30 14:48 | 50.89951 | 4.48734 | 147 ft | 2 kts | 335° |
| 2026-04-30 14:48 | 50.89936 | 4.48745 | 147 ft | 2 kts | 335° |
| 2026-04-30 14:49 | 50.89921 | 4.48755 | 147 ft | 2 kts | 336° |
| 2026-04-30 14:49 | 50.89906 | 4.48765 | 148 ft | 2 kts | 338° |
| 2026-04-30 14:49 | 50.89891 | 4.48775 | 148 ft | 2 kts | 340° |
| 2026-04-30 14:49 | 50.89875 | 4.48783 | 148 ft | 2 kts | 347° |
| 2026-04-30 14:50 | 50.89848 | 4.48774 | 148 ft | 1 kts | 64° |
| 2026-04-30 14:50 | 50.89847 | 4.48771 | 148 ft | 0 kts | 65° |
| 2026-04-30 14:54 | 50.89874 | 4.48863 | 148 ft | 11 kts | 65° |
| 2026-04-30 14:54 | 50.89955 | 4.49144 | 146 ft | 11 kts | 65° |
| 2026-04-30 14:55 | 50.89929 | 4.49256 | 146 ft | 4 kts | 182° |
| 2026-04-30 14:55 | 50.89903 | 4.49248 | 146 ft | 5 kts | 191° |
| 2026-04-30 14:55 | 50.89776 | 4.49198 | 147 ft | 12 kts | 194° |
| 2026-04-30 14:56 | 50.89625 | 4.49122 | 145 ft | 10 kts | 220° |
| 2026-04-30 14:56 | 50.89512 | 4.49043 | 145 ft | 9 kts | 194° |
| 2026-04-30 14:57 | 50.89454 | 4.49021 | 145 ft | 8 kts | 193° |
| 2026-04-30 14:57 | 50.89346 | 4.48979 | 144 ft | 9 kts | 194° |
| 2026-04-30 14:58 | 50.89248 | 4.48692 | 144 ft | 18 kts | 249° |
| 2026-04-30 14:58 | 50.89202 | 4.48493 | 141 ft | 21 kts | 250° |
| 2026-04-30 14:58 | 50.89114 | 4.48115 | 137 ft | 12 kts | 250° |
| 2026-04-30 14:59 | 50.89101 | 4.48061 | 136 ft | 0 kts | 250° |
| 2026-04-30 15:00 | 50.89099 | 4.48051 | 136 ft | 4 kts | 250° |
| 2026-04-30 15:00 | 50.89067 | 4.47931 | 135 ft | 0 kts | 231° |
| 2026-04-30 15:01 | 50.89066 | 4.47929 | 135 ft | 2 kts | 231° |
| 2026-04-30 15:02 | 50.89041 | 4.47903 | 134 ft | 5 kts | 200° |
| 2026-04-30 15:02 | 50.88983 | 4.47916 | 125 ft | 13 kts | 161° |
| 2026-04-30 15:03 | 50.88943 | 4.48211 | 125 ft | 0 kts | 70° |
| 2026-04-30 15:04 | 50.88961 | 4.48286 | 126 ft | 27 kts | 70° |
| 2026-04-30 15:04 | 50.89760 | 4.51592 | 513 ft | 148 kts | 65° |
| 2026-04-30 15:05 | 50.91269 | 4.56492 | 1530 ft | 182 kts | 62° |
| 2026-04-30 15:06 | 50.93487 | 4.57901 | 2483 ft | 200 kts | 334° |
| 2026-04-30 15:06 | 50.95226 | 4.54194 | 3371 ft | 231 kts | 295° |
| 2026-04-30 15:07 | 50.96748 | 4.49311 | 4443 ft | 258 kts | 297° |
| 2026-04-30 15:07 | 50.98460 | 4.44128 | 5640 ft | 270 kts | 297° |
| 2026-04-30 15:08 | 51.00185 | 4.38816 | 5707 ft | 270 kts | 297° |
| 2026-04-30 15:08 | 51.02756 | 4.30907 | 5708 ft | 270 kts | 297° |
| 2026-04-30 15:09 | 51.04478 | 4.25593 | 6125 ft | 272 kts | 297° |
| 2026-04-30 15:09 | 51.06225 | 4.20189 | 7703 ft | 277 kts | 297° |
| 2026-04-30 15:10 | 51.08006 | 4.14671 | 9136 ft | 284 kts | 297° |
| 2026-04-30 15:11 | 51.11682 | 4.03237 | 11825 ft | 296 kts | 297° |
| 2026-04-30 15:11 | 51.13573 | 3.97336 | 12719 ft | 302 kts | 297° |
| 2026-04-30 15:12 | 51.15812 | 3.87938 | 13473 ft | 307 kts | 280° |
| 2026-04-30 15:13 | 51.16673 | 3.81328 | 13698 ft | 304 kts | 285° |
| 2026-04-30 15:14 | 51.18814 | 3.68312 | 13700 ft | 304 kts | 284° |
| 2026-04-30 15:14 | 51.20385 | 3.58505 | 13707 ft | 311 kts | 284° |
| 2026-04-30 15:16 | 51.23357 | 3.39706 | 13714 ft | 363 kts | 284° |
| 2026-04-30 15:17 | 51.25814 | 3.24004 | 14837 ft | 369 kts | 284° |
| 2026-04-30 15:18 | 51.29026 | 3.03242 | 17174 ft | 402 kts | 284° |
| 2026-04-30 15:19 | 51.31053 | 2.90002 | 18632 ft | 415 kts | 283° |